Station Historical Data
Daily Summary for May 1, 2012 Units:  English    Metric   Both
« Previous Day
Next Day »
Daily Weekly Monthly Yearly Custom
  High: Low: Average:
Temperature: 85.5 °F 61.5 °F 74.7 °F
Dew Point: 68.6 °F 59.1 °F 64 °F
Humidity: 92% 49% 71%
Wind Speed: 11.0mph 0.0mph 3.4mph
Wind Gust: 15.0mph - -
Wind- - South
Pressure: 30.05 in 29.92 in -
Precipitation: 0.00 in    
Historical Graphs
 
 
Tabular Data for May 1, 2012
Time Temperature Dew Point Pressure Wind Wind Speed Wind Gust Humidity Rainfall Rate (Hourly) Conditions
00:00 70.7 °F 63.5 °F 29.99 in Calm   1.0 mph 78% 0.00 in
00:01 70.6 °F 63.4 °F 29.99 in SE 1.0 mph 1.0 mph 78% 0.00 in
00:06 70.3 °F 63.5 °F 29.99 in SE 1.0 mph 2.0 mph 79% 0.00 in
00:11 70.3 °F 63.5 °F 29.99 in SE 1.0 mph 2.0 mph 79% 0.00 in
00:16 69.8 °F 63.0 °F 29.99 in SE 1.0 mph 2.0 mph 79% 0.00 in
00:21 69.5 °F 63.1 °F 29.98 in SE 1.0 mph 1.0 mph 80% 0.00 in
00:26 69.3 °F 62.9 °F 29.98 in SE 1.0 mph 2.0 mph 80% 0.00 in
00:31 69.1 °F 62.7 °F 29.98 in SE 1.0 mph 2.0 mph 80% 0.00 in
00:36 69.2 °F 62.8 °F 29.98 in SSE 2.0 mph 2.0 mph 80% 0.00 in
00:41 69.2 °F 62.8 °F 29.98 in SE 2.0 mph 3.0 mph 80% 0.00 in
00:46 69.2 °F 62.8 °F 29.97 in SSE 2.0 mph 3.0 mph 80% 0.00 in
00:51 69.7 °F 62.9 °F 29.97 in SE 3.0 mph 4.0 mph 79% 0.00 in
00:56 69.9 °F 62.7 °F 29.97 in ESE 3.0 mph 3.0 mph 78% 0.00 in
01:01 69.9 °F 62.7 °F 29.97 in SE 4.0 mph 5.0 mph 78% 0.00 in
01:06 69.9 °F 62.7 °F 29.96 in SE 3.0 mph 4.0 mph 78% 0.00 in
01:11 69.6 °F 62.4 °F 29.96 in SE 2.0 mph 4.0 mph 78% 0.00 in
01:16 69.4 °F 62.2 °F 29.97 in SE 2.0 mph 3.0 mph 78% 0.00 in
01:21 69.2 °F 62.1 °F 29.97 in SE 2.0 mph 3.0 mph 78% 0.00 in
01:26 69.0 °F 62.2 °F 29.97 in SE 2.0 mph 3.0 mph 79% 0.00 in
01:31 69.0 °F 62.2 °F 29.97 in SSE 2.0 mph 4.0 mph 79% 0.00 in
01:36 68.9 °F 62.1 °F 29.97 in SSE 2.0 mph 3.0 mph 79% 0.00 in
01:41 68.8 °F 62.0 °F 29.96 in SE 4.0 mph 4.0 mph 79% 0.00 in
01:46 68.9 °F 62.1 °F 29.96 in SE 3.0 mph 4.0 mph 79% 0.00 in
01:51 69.2 °F 62.1 °F 29.96 in SE 3.0 mph 4.0 mph 78% 0.00 in
01:52 69.2 °F 62.1 °F 29.96 in SE 2.0 mph 4.0 mph 78% 0.00 in
01:57 69.2 °F 62.1 °F 29.97 in SE 2.0 mph 3.0 mph 78% 0.00 in
02:02 69.0 °F 61.9 °F 29.97 in SE 2.0 mph 2.0 mph 78% 0.00 in
02:07 68.7 °F 61.9 °F 29.96 in SSE 1.0 mph 3.0 mph 79% 0.00 in
02:12 68.5 °F 61.7 °F 29.97 in South 2.0 mph 5.0 mph 79% 0.00 in
02:17 68.5 °F 61.7 °F 29.97 in SSE 1.0 mph 3.0 mph 79% 0.00 in
02:22 68.4 °F 61.6 °F 29.96 in SSE 1.0 mph 1.0 mph 79% 0.00 in
02:27 68.2 °F 61.8 °F 29.97 in SE 2.0 mph 2.0 mph 80% 0.00 in
02:32 68.0 °F 61.6 °F 29.97 in SE 1.0 mph 2.0 mph 80% 0.00 in
02:37 67.9 °F 61.5 °F 29.97 in Calm   1.0 mph 80% 0.00 in
02:42 67.5 °F 61.1 °F 29.97 in Calm     80% 0.00 in
02:47 67.1 °F 61.4 °F 29.97 in Calm     82% 0.00 in
02:52 66.9 °F 61.6 °F 29.97 in Calm     83% 0.00 in
02:57 66.9 °F 61.6 °F 29.97 in Calm   1.0 mph 83% 0.00 in
03:02 66.8 °F 61.5 °F 29.98 in Calm     83% 0.00 in
03:07 66.7 °F 61.4 °F 29.98 in Calm   1.0 mph 83% 0.00 in
03:12 66.7 °F 61.4 °F 29.97 in Calm   1.0 mph 83% 0.00 in
03:18 66.2 °F 60.9 °F 29.98 in SE 2.0 mph 2.0 mph 83% 0.00 in
03:23 65.0 °F 60.4 °F 29.98 in NNW 2.0 mph 2.0 mph 85% 0.00 in
03:28 64.4 °F 60.5 °F 29.98 in North 1.0 mph 2.0 mph 87% 0.00 in
03:33 64.2 °F 60.6 °F 29.98 in North 1.0 mph 2.0 mph 88% 0.00 in
03:38 63.9 °F 60.6 °F 29.98 in NNW 1.0 mph 1.0 mph 89% 0.00 in
03:43 63.8 °F 60.5 °F 29.99 in Calm     89% 0.00 in
03:48 63.7 °F 60.4 °F 29.99 in Calm     89% 0.00 in
03:53 63.5 °F 60.2 °F 29.99 in Calm     89% 0.00 in
03:58 63.3 °F 60.3 °F 30.00 in Calm     90% 0.00 in
04:04 63.0 °F 60.0 °F 30.00 in Calm     90% 0.00 in
04:09 62.9 °F 60.2 °F 30.00 in Calm     91% 0.00 in
04:14 62.9 °F 60.2 °F 30.00 in NNW 1.0 mph 1.0 mph 91% 0.00 in
04:19 62.7 °F 60.0 °F 30.00 in NNW 1.0 mph 2.0 mph 91% 0.00 in
04:24 62.6 °F 59.9 °F 30.00 in Calm   1.0 mph 91% 0.00 in
04:29 62.9 °F 60.5 °F 30.01 in Calm     92% 0.00 in
04:34 63.1 °F 60.7 °F 30.01 in Calm     92% 0.00 in
04:39 63.4 °F 60.7 °F 30.01 in Calm     91% 0.00 in
04:44 63.8 °F 60.8 °F 30.01 in Calm     90% 0.00 in
04:49 64.1 °F 61.1 °F 30.01 in Calm     90% 0.00 in
04:54 64.1 °F 60.8 °F 30.01 in Calm     89% 0.00 in
04:59 63.9 °F 60.6 °F 30.00 in Calm     89% 0.00 in
05:04 63.7 °F 60.7 °F 30.00 in Calm     90% 0.00 in
05:09 63.6 °F 60.6 °F 30.00 in Calm     90% 0.00 in
05:14 63.4 °F 60.4 °F 30.01 in Calm     90% 0.00 in
05:19 63.1 °F 60.1 °F 30.00 in Calm     90% 0.00 in
05:24 62.8 °F 59.8 °F 30.01 in Calm     90% 0.00 in
05:29 62.5 °F 59.8 °F 30.01 in Calm     91% 0.00 in
05:34 62.2 °F 59.5 °F 30.01 in Calm     91% 0.00 in
05:39 62.6 °F 60.2 °F 30.00 in East 2.0 mph 2.0 mph 92% 0.00 in
05:45 63.0 °F 60.6 °F 30.00 in East 1.0 mph 2.0 mph 92% 0.00 in
05:50 63.4 °F 60.7 °F 30.00 in East 1.0 mph 1.0 mph 91% 0.00 in
05:55 63.7 °F 60.7 °F 30.00 in Calm   1.0 mph 90% 0.00 in
06:00 63.8 °F 60.8 °F 30.00 in Calm   1.0 mph 90% 0.00 in
06:05 63.6 °F 60.6 °F 30.00 in Calm   1.0 mph 90% 0.00 in
06:10 63.3 °F 60.3 °F 30.00 in Calm     90% 0.00 in
06:15 63.0 °F 60.0 °F 30.00 in Calm     90% 0.00 in
06:20 62.9 °F 60.2 °F 30.00 in East 2.0 mph 2.0 mph 91% 0.00 in
06:25 62.7 °F 59.7 °F 30.00 in Calm   2.0 mph 90% 0.00 in
06:30 62.1 °F 59.1 °F 30.00 in ESE 1.0 mph 1.0 mph 90% 0.00 in
06:35 62.1 °F 59.5 °F 30.00 in Calm   1.0 mph 91% 0.00 in
06:40 62.1 °F 59.5 °F 30.01 in Calm   1.0 mph 91% 0.00 in
06:45 62.2 °F 59.8 °F 30.01 in Calm   1.0 mph 92% 0.00 in
06:50 62.0 °F 59.3 °F 30.01 in Calm     91% 0.00 in
06:55 61.8 °F 59.2 °F 30.01 in Calm     91% 0.00 in
07:00 61.6 °F 59.3 °F 30.01 in Calm     92% 0.00 in
07:05 61.6 °F 59.3 °F 30.02 in Calm     92% 0.00 in
07:10 61.5 °F 59.2 °F 30.02 in Calm     92% 0.00 in
07:15 61.6 °F 59.3 °F 30.02 in Calm     92% 0.00 in
07:20 61.8 °F 59.5 °F 30.02 in Calm     92% 0.00 in
07:25 62.1 °F 59.8 °F 30.02 in Calm     92% 0.00 in
07:30 62.4 °F 60.0 °F 30.02 in Calm     92% 0.00 in
07:35 62.9 °F 60.2 °F 30.02 in Calm     91% 0.00 in
07:40 63.3 °F 60.6 °F 30.03 in ESE 2.0 mph 2.0 mph 91% 0.00 in
07:45 63.9 °F 60.9 °F 30.03 in SE 2.0 mph 4.0 mph 90% 0.00 in
07:50 64.5 °F 61.2 °F 30.03 in SE 2.0 mph 2.0 mph 89% 0.00 in
07:55 65.1 °F 61.5 °F 30.03 in ESE 2.0 mph 2.0 mph 88% 0.00 in
08:00 65.6 °F 62.0 °F 30.02 in ESE 1.0 mph 2.0 mph 88% 0.00 in
08:05 65.9 °F 61.9 °F 30.03 in ESE 1.0 mph 2.0 mph 87% 0.00 in
08:10 66.2 °F 62.2 °F 30.03 in SE 1.0 mph 3.0 mph 87% 0.00 in
08:15 66.7 °F 62.7 °F 30.03 in SSE 2.0 mph 3.0 mph 87% 0.00 in
08:21 67.3 °F 63.0 °F 30.03 in SE 2.0 mph 3.0 mph 86% 0.00 in
08:26 67.7 °F 63.4 °F 30.03 in SSE 2.0 mph 2.0 mph 86% 0.00 in
08:31 68.0 °F 63.3 °F 30.03 in SSE 4.0 mph 4.0 mph 85% 0.00 in
08:36 68.2 °F 63.2 °F 30.03 in SE 3.0 mph 6.0 mph 84% 0.00 in
08:41 68.5 °F 63.1 °F 30.03 in SSE 5.0 mph 7.0 mph 83% 0.00 in
08:46 69.0 °F 63.6 °F 30.03 in SSE 6.0 mph 6.0 mph 83% 0.00 in
08:51 69.4 °F 63.7 °F 30.03 in SE 7.0 mph 7.0 mph 82% 0.00 in
08:56 69.7 °F 63.6 °F 30.03 in SE 6.0 mph 6.0 mph 81% 0.00 in
09:01 69.9 °F 63.8 °F 30.03 in SE 3.0 mph 6.0 mph 81% 0.00 in
09:06 70.3 °F 64.6 °F 30.03 in SSE 4.0 mph 5.0 mph 82% 0.00 in
09:11 70.9 °F 64.8 °F 30.03 in SSE 4.0 mph 5.0 mph 81% 0.00 in
09:16 71.3 °F 64.8 °F 30.03 in SE 3.0 mph 6.0 mph 80% 0.00 in
09:21 71.6 °F 65.1 °F 30.03 in SSE 5.0 mph 5.0 mph 80% 0.00 in
09:26 72.0 °F 65.5 °F 30.03 in SSE 6.0 mph 7.0 mph 80% 0.00 in
09:31 72.3 °F 65.1 °F 30.04 in SSE 2.0 mph 6.0 mph 78% 0.00 in
09:36 72.6 °F 65.3 °F 30.04 in SSW 3.0 mph 6.0 mph 78% 0.00 in
09:41 73.0 °F 65.7 °F 30.04 in SE 4.0 mph 4.0 mph 78% 0.00 in
09:46 73.6 °F 65.9 °F 30.04 in SSE 3.0 mph 5.0 mph 77% 0.00 in
09:51 74.2 °F 66.5 °F 30.04 in South 4.0 mph 6.0 mph 77% 0.00 in
09:56 74.8 °F 66.3 °F 30.04 in SW 3.0 mph 6.0 mph 75% 0.00 in
10:01 75.2 °F 66.7 °F 30.04 in SW 4.0 mph 6.0 mph 75% 0.00 in
10:06 75.5 °F 65.8 °F 30.04 in SSW 3.0 mph 9.0 mph 72% 0.00 in
10:11 76.1 °F 66.8 °F 30.04 in SW 4.0 mph 6.0 mph 73% 0.00 in
10:16 76.7 °F 67.8 °F 30.04 in WSW 3.0 mph 6.0 mph 74% 0.00 in
10:21 77.0 °F 67.3 °F 30.04 in WSW 8.0 mph 8.0 mph 72% 0.00 in
10:26 77.2 °F 66.7 °F 30.04 in SW 6.0 mph 10.0 mph 70% 0.00 in
10:31 77.4 °F 67.3 °F 30.04 in WSW 4.0 mph 9.0 mph 71% 0.00 in
10:36 77.4 °F 67.3 °F 30.05 in SSW 6.0 mph 11.0 mph 71% 0.00 in
10:41 77.4 °F 67.3 °F 30.05 in SSW 7.0 mph 10.0 mph 71% 0.00 in
10:46 77.7 °F 68.0 °F 30.05 in SW 8.0 mph 11.0 mph 72% 0.00 in
10:51 78.0 °F 67.4 °F 30.05 in SW 6.0 mph 11.0 mph 70% 0.00 in
10:56 78.4 °F 67.8 °F 30.05 in SW 7.0 mph 9.0 mph 70% 0.00 in
11:01 79.0 °F 68.4 °F 30.05 in SW 4.0 mph 8.0 mph 70% 0.00 in
11:06 79.2 °F 68.6 °F 30.05 in WSW 6.0 mph 8.0 mph 70% 0.00 in
11:11 79.7 °F 68.2 °F 30.05 in SW 9.0 mph 12.0 mph 68% 0.00 in
11:16 80.0 °F 68.5 °F 30.05 in WSW 4.0 mph 8.0 mph 68% 0.00 in
11:21 80.2 °F 67.8 °F 30.05 in WSW 7.0 mph 10.0 mph 66% 0.00 in
11:26 80.5 °F 68.5 °F 30.04 in SSW 8.0 mph 8.0 mph 67% 0.00 in
11:31 80.9 °F 67.6 °F 30.05 in SW 8.0 mph 11.0 mph 64% 0.00 in
11:37 81.0 °F 67.7 °F 30.05 in SSW 7.0 mph 12.0 mph 64% 0.00 in
11:42 81.0 °F 67.7 °F 30.05 in SSW 9.0 mph 13.0 mph 64% 0.00 in
11:47 81.0 °F 67.2 °F 30.05 in SW 11.0 mph 14.0 mph 63% 0.00 in
11:52 80.8 °F 67.5 °F 30.05 in West 9.0 mph 12.0 mph 64% 0.00 in
11:57 80.5 °F 66.8 °F 30.05 in West 5.0 mph 11.0 mph 63% 0.00 in
12:02 80.5 °F 67.7 °F 30.05 in WSW 7.0 mph 11.0 mph 65% 0.00 in
12:07 81.0 °F 67.2 °F 30.05 in SW 7.0 mph 11.0 mph 63% 0.00 in
12:12 81.3 °F 68.0 °F 30.04 in WSW 10.0 mph 11.0 mph 64% 0.00 in
12:17 81.4 °F 67.1 °F 30.05 in SSW 6.0 mph 13.0 mph 62% 0.00 in
12:22 81.3 °F 67.1 °F 30.04 in SW 10.0 mph 15.0 mph 62% 0.00 in
12:27 81.7 °F 66.9 °F 30.04 in SSW 7.0 mph 13.0 mph 61% 0.00 in
12:32 82.2 °F 67.9 °F 30.03 in SW 5.0 mph 11.0 mph 62% 0.00 in
12:37 82.4 °F 66.7 °F 30.03 in SW 11.0 mph 11.0 mph 59% 0.00 in
12:42 81.8 °F 66.6 °F 30.03 in SW 8.0 mph 13.0 mph 60% 0.00 in
12:47 81.7 °F 66.0 °F 30.03 in SW 7.0 mph 12.0 mph 59% 0.00 in
12:52 82.4 °F 68.1 °F 30.03 in SW 3.0 mph 12.0 mph 62% 0.00 in
12:57 83.0 °F 66.7 °F 30.02 in SW 11.0 mph 11.0 mph 58% 0.00 in
13:02 83.0 °F 65.7 °F 30.02 in WSW 7.0 mph 11.0 mph 56% 0.00 in
13:07 82.8 °F 65.0 °F 30.02 in WSW 10.0 mph 13.0 mph 55% 0.00 in
13:12 83.1 °F 65.8 °F 30.01 in West 11.0 mph 11.0 mph 56% 0.00 in
13:17 83.3 °F 67.0 °F 30.01 in SW 6.0 mph 10.0 mph 58% 0.00 in
13:22 83.5 °F 65.7 °F 30.01 in SSE 10.0 mph 10.0 mph 55% 0.00 in
13:27 83.8 °F 66.4 °F 30.01 in WSW 7.0 mph 11.0 mph 56% 0.00 in
13:32 84.0 °F 63.9 °F 30.01 in SSE 5.0 mph 13.0 mph 51% 0.00 in
13:37 83.5 °F 64.6 °F 30.01 in SSW 6.0 mph 12.0 mph 53% 0.00 in
13:43 83.5 °F 66.2 °F 30.00 in SSE 8.0 mph 9.0 mph 56% 0.00 in
13:47 84.1 °F 65.7 °F 30.01 in WSW 6.0 mph 10.0 mph 54% 0.00 in
13:53 83.9 °F 64.9 °F 30.00 in SW 6.0 mph 10.0 mph 53% 0.00 in
13:58 83.4 °F 65.0 °F 30.00 in SW 8.0 mph 9.0 mph 54% 0.00 in
14:03 83.4 °F 66.1 °F 30.00 in SW 8.0 mph 9.0 mph 56% 0.00 in
14:08 83.4 °F 66.1 °F 30.00 in SSE 5.0 mph 7.0 mph 56% 0.00 in
14:13 84.1 °F 66.2 °F 30.00 in SW 7.0 mph 13.0 mph 55% 0.00 in
14:18 84.1 °F 66.7 °F 29.99 in SSW 7.0 mph 10.0 mph 56% 0.00 in
14:23 84.1 °F 65.7 °F 29.99 in WSW 3.0 mph 7.0 mph 54% 0.00 in
14:28 84.8 °F 66.3 °F 29.99 in SSE 7.0 mph 12.0 mph 54% 0.00 in
14:33 84.6 °F 64.5 °F 29.99 in SW 10.0 mph 11.0 mph 51% 0.00 in
14:38 84.8 °F 65.8 °F 29.99 in SSE 6.0 mph 12.0 mph 53% 0.00 in
14:43 84.2 °F 64.7 °F 29.99 in SE 9.0 mph 10.0 mph 52% 0.00 in
14:48 83.5 °F 65.1 °F 29.98 in South 6.0 mph 10.0 mph 54% 0.00 in
14:53 83.9 °F 64.9 °F 29.98 in SW 10.0 mph 11.0 mph 53% 0.00 in
14:58 84.6 °F 65.1 °F 29.98 in SSW 7.0 mph 12.0 mph 52% 0.00 in
15:03 85.0 °F 63.7 °F 29.98 in SSW 10.0 mph 11.0 mph 49% 0.00 in
15:08 84.7 °F 64.0 °F 29.98 in SSE 5.0 mph 9.0 mph 50% 0.00 in
15:13 84.4 °F 64.9 °F 29.98 in SSE 9.0 mph 12.0 mph 52% 0.00 in
15:18 84.3 °F 64.2 °F 29.98 in SE 5.0 mph 11.0 mph 51% 0.00 in
15:23 84.1 °F 64.6 °F 29.98 in SW 4.0 mph 8.0 mph 52% 0.00 in
15:28 84.1 °F 65.7 °F 29.98 in South 3.0 mph 7.0 mph 54% 0.00 in
15:33 84.0 °F 63.9 °F 29.97 in SSW 10.0 mph 10.0 mph 51% 0.00 in
15:38 84.5 °F 65.5 °F 29.97 in SSW 6.0 mph 8.0 mph 53% 0.00 in
15:43 85.2 °F 64.5 °F 29.97 in SSW 5.0 mph 11.0 mph 50% 0.00 in
15:48 85.2 °F 65.1 °F 29.97 in South 7.0 mph 9.0 mph 51% 0.00 in
15:53 85.1 °F 64.4 °F 29.97 in SW 4.0 mph 13.0 mph 50% 0.00 in
15:58 85.2 °F 64.5 °F 29.97 in SW 4.0 mph 12.0 mph 50% 0.00 in
16:04 85.0 °F 63.7 °F 29.97 in SSE 11.0 mph 15.0 mph 49% 0.00 in
16:09 84.7 °F 64.0 °F 29.96 in South 9.0 mph 12.0 mph 50% 0.00 in
16:14 84.8 °F 64.1 °F 29.96 in South 9.0 mph 14.0 mph 50% 0.00 in
16:19 84.7 °F 64.6 °F 29.95 in SSE 9.0 mph 12.0 mph 51% 0.00 in
16:24 84.5 °F 64.4 °F 29.95 in SSE 7.0 mph 10.0 mph 51% 0.00 in
16:29 84.4 °F 63.8 °F 29.95 in SSW 5.0 mph 11.0 mph 50% 0.00 in
16:34 84.3 °F 64.2 °F 29.95 in SSE 6.0 mph 8.0 mph 51% 0.00 in
16:39 84.1 °F 64.0 °F 29.95 in SSW 7.0 mph 12.0 mph 51% 0.00 in
16:44 83.9 °F 64.4 °F 29.95 in SE 5.0 mph 8.0 mph 52% 0.00 in
16:49 84.0 °F 64.5 °F 29.95 in SW 6.0 mph 11.0 mph 52% 0.00 in
16:54 84.1 °F 64.6 °F 29.95 in South 6.0 mph 13.0 mph 52% 0.00 in
16:59 84.3 °F 64.8 °F 29.94 in South 10.0 mph 10.0 mph 52% 0.00 in
17:04 84.4 °F 65.4 °F 29.94 in SSE 6.0 mph 10.0 mph 53% 0.00 in
17:09 84.5 °F 65.5 °F 29.94 in South 5.0 mph 9.0 mph 53% 0.00 in
17:14 84.5 °F 64.4 °F 29.94 in SSW 4.0 mph 8.0 mph 51% 0.00 in
17:19 84.7 °F 64.6 °F 29.94 in SW 4.0 mph 11.0 mph 51% 0.00 in
17:24 85.1 °F 65.0 °F 29.94 in SSW 7.0 mph 9.0 mph 51% 0.00 in
17:29 85.1 °F 65.0 °F 29.94 in SSE 2.0 mph 9.0 mph 51% 0.00 in
17:34 85.5 °F 65.3 °F 29.94 in South 7.0 mph 9.0 mph 51% 0.00 in
17:39 85.2 °F 66.2 °F 29.94 in SSW 5.0 mph 9.0 mph 53% 0.00 in
17:44 84.6 °F 65.6 °F 29.94 in South 6.0 mph 12.0 mph 53% 0.00 in
17:49 84.1 °F 65.7 °F 29.94 in SE 8.0 mph 10.0 mph 54% 0.00 in
17:54 84.0 °F 66.1 °F 29.94 in SSE 10.0 mph 13.0 mph 55% 0.00 in
17:59 84.1 °F 65.7 °F 29.94 in South 4.0 mph 12.0 mph 54% 0.00 in
18:04 84.1 °F 64.6 °F 29.94 in SSE 9.0 mph 10.0 mph 52% 0.00 in
18:09 84.7 °F 66.2 °F 29.94 in South 6.0 mph 6.0 mph 54% 0.00 in
18:14 84.9 °F 65.9 °F 29.94 in SE 6.0 mph 11.0 mph 53% 0.00 in
18:19 84.9 °F 65.3 °F 29.94 in SSE 7.0 mph 10.0 mph 52% 0.00 in
18:24 85.0 °F 66.0 °F 29.94 in South 4.0 mph 10.0 mph 53% 0.00 in
18:30 84.9 °F 65.3 °F 29.93 in SSW 6.0 mph 11.0 mph 52% 0.00 in
18:35 84.7 °F 65.1 °F 29.93 in SSW 4.0 mph 10.0 mph 52% 0.00 in
18:40 84.7 °F 65.7 °F 29.93 in SSE 5.0 mph 9.0 mph 53% 0.00 in
18:45 84.8 °F 65.8 °F 29.93 in SSW 9.0 mph 9.0 mph 53% 0.00 in
18:50 84.8 °F 65.8 °F 29.93 in SSE 7.0 mph 7.0 mph 53% 0.00 in
18:55 84.5 °F 65.5 °F 29.93 in SW 6.0 mph 10.0 mph 53% 0.00 in
19:00 84.3 °F 64.8 °F 29.93 in WSW 6.0 mph 8.0 mph 52% 0.00 in
19:05 84.3 °F 65.9 °F 29.93 in SSW 3.0 mph 5.0 mph 54% 0.00 in
19:10 84.1 °F 65.1 °F 29.93 in SW 6.0 mph 6.0 mph 53% 0.00 in
19:15 83.9 °F 66.0 °F 29.93 in SSW 2.0 mph 7.0 mph 55% 0.00 in
19:20 83.7 °F 65.8 °F 29.93 in SSW 2.0 mph 5.0 mph 55% 0.00 in
19:25 83.8 °F 65.9 °F 29.93 in SSE 2.0 mph 5.0 mph 55% 0.00 in
19:30 83.9 °F 66.0 °F 29.93 in South 1.0 mph 4.0 mph 55% 0.00 in
19:35 83.6 °F 66.8 °F 29.92 in SSW 2.0 mph 3.0 mph 57% 0.00 in
19:40 83.6 °F 66.3 °F 29.92 in South 3.0 mph 4.0 mph 56% 0.00 in
19:46 83.4 °F 66.1 °F 29.92 in SW 1.0 mph 2.0 mph 56% 0.00 in
19:51 83.0 °F 66.2 °F 29.92 in SSW 2.0 mph 4.0 mph 57% 0.00 in
19:56 82.4 °F 66.2 °F 29.92 in SSW 1.0 mph 2.0 mph 58% 0.00 in
20:01 82.3 °F 67.0 °F 29.93 in SE 1.0 mph 1.0 mph 60% 0.00 in
20:06 81.7 °F 66.5 °F 29.93 in SE 1.0 mph 2.0 mph 60% 0.00 in
20:11 81.1 °F 66.9 °F 29.93 in South 1.0 mph 1.0 mph 62% 0.00 in
20:16 80.8 °F 66.6 °F 29.93 in Calm   1.0 mph 62% 0.00 in
20:21 80.2 °F 66.0 °F 29.93 in Calm   1.0 mph 62% 0.00 in
20:26 79.7 °F 66.5 °F 29.93 in Calm     64% 0.00 in
20:31 79.2 °F 66.0 °F 29.93 in Calm     64% 0.00 in
20:36 78.7 °F 66.4 °F 29.93 in Calm     66% 0.00 in
20:41 78.2 °F 65.9 °F 29.93 in Calm   1.0 mph 66% 0.00 in
20:46 77.8 °F 66.0 °F 29.93 in Calm   1.0 mph 67% 0.00 in
20:51 77.3 °F 65.5 °F 29.93 in SE 1.0 mph 1.0 mph 67% 0.00 in
20:56 77.0 °F 65.6 °F 29.93 in SE 2.0 mph 3.0 mph 68% 0.00 in
21:01 76.4 °F 65.1 °F 29.93 in ESE 2.0 mph 2.0 mph 68% 0.00 in
21:06 75.9 °F 65.0 °F 29.93 in SE 2.0 mph 2.0 mph 69% 0.00 in
21:11 75.8 °F 64.9 °F 29.94 in SE 1.0 mph 2.0 mph 69% 0.00 in
21:16 75.6 °F 64.7 °F 29.93 in SE 3.0 mph 3.0 mph 69% 0.00 in
21:21 75.7 °F 64.8 °F 29.93 in SE 2.0 mph 2.0 mph 69% 0.00 in
21:26 75.3 °F 64.8 °F 29.94 in SE 1.0 mph 2.0 mph 70% 0.00 in
21:31 75.0 °F 64.6 °F 29.94 in SSE 1.0 mph 1.0 mph 70% 0.00 in
21:36 74.8 °F 64.4 °F 29.94 in Calm   1.0 mph 70% 0.00 in
21:41 74.5 °F 64.5 °F 29.94 in Calm     71% 0.00 in
21:46 74.1 °F 64.5 °F 29.94 in ESE 2.0 mph 2.0 mph 72% 0.00 in
21:51 74.0 °F 64.4 °F 29.94 in SE 1.0 mph 3.0 mph 72% 0.00 in
21:57 73.5 °F 64.3 °F 29.94 in SSE 1.0 mph 2.0 mph 73% 0.00 in
22:02 73.2 °F 64.4 °F 29.94 in SE 2.0 mph 3.0 mph 74% 0.00 in
22:07 73.1 °F 64.3 °F 29.95 in South 2.0 mph 3.0 mph 74% 0.00 in
22:12 73.2 °F 64.8 °F 29.95 in SSE 2.0 mph 2.0 mph 75% 0.00 in
22:17 73.2 °F 64.8 °F 29.95 in SE 2.0 mph 3.0 mph 75% 0.00 in
22:22 73.3 °F 64.5 °F 29.95 in SE 2.0 mph 2.0 mph 74% 0.00 in
22:27 73.2 °F 64.4 °F 29.95 in SE 1.0 mph 2.0 mph 74% 0.00 in
22:32 73.2 °F 64.4 °F 29.95 in SE 1.0 mph 2.0 mph 74% 0.00 in
22:37 73.4 °F 64.6 °F 29.95 in SSE 1.0 mph 2.0 mph 74% 0.00 in
22:42 73.3 °F 64.5 °F 29.95 in SE 2.0 mph 2.0 mph 74% 0.00 in
22:47 73.2 °F 64.4 °F 29.95 in SSE 1.0 mph 2.0 mph 74% 0.00 in
22:52 73.2 °F 64.4 °F 29.95 in South 1.0 mph 2.0 mph 74% 0.00 in
22:57 73.1 °F 64.3 °F 29.96 in SE 2.0 mph 2.0 mph 74% 0.00 in
23:02 73.0 °F 64.6 °F 29.95 in SSE 2.0 mph 2.0 mph 75% 0.00 in
23:07 72.9 °F 64.5 °F 29.95 in SSW 1.0 mph 2.0 mph 75% 0.00 in
23:12 73.0 °F 64.6 °F 29.95 in South 1.0 mph 1.0 mph 75% 0.00 in
23:17 73.2 °F 65.2 °F 29.95 in SSE 2.0 mph 3.0 mph 76% 0.00 in
23:22 73.5 °F 65.1 °F 29.95 in South 2.0 mph 3.0 mph 75% 0.00 in
23:27 73.6 °F 65.2 °F 29.95 in SE 1.0 mph 3.0 mph 75% 0.00 in
23:32 73.3 °F 64.9 °F 29.96 in SSE 1.0 mph 2.0 mph 75% 0.00 in
23:37 72.7 °F 65.1 °F 29.96 in SE 1.0 mph 2.0 mph 77% 0.00 in
23:43 72.4 °F 65.2 °F 29.96 in SE 2.0 mph 2.0 mph 78% 0.00 in
23:48 72.5 °F 65.3 °F 29.95 in South 1.0 mph 3.0 mph 78% 0.00 in
23:53 72.7 °F 65.4 °F 29.96 in SSE 2.0 mph 2.0 mph 78% 0.00 in
23:58 72.7 °F 65.1 °F 29.96 in South 2.0 mph 2.0 mph 77% 0.00 in
Compliments of Weather Underground